Time,TemperatureF,DewpointF,PressureIn,WindDirection,WindDirectionDegrees,WindSpeedMPH,WindSpeedGustMPH,Humidity,HourlyPrecipIn,Conditions,Clouds,dailyrainin,SoftwareType,DateUTC
2013-03-07 00:03:00,46.0,-99.9,-100.00,SW,227,14.0,23.0,-999,-99.99,,,-99.99,,2013-03-07 08:03:00,
2013-03-07 00:12:00,46.0,-99.9,-100.00,SW,227,14.0,23.0,-999,-99.99,,,-99.99,,2013-03-07 08:12:00,
2013-03-07 01:04:00,44.0,-99.9,-100.00,SSW,211,12.0,21.0,-999,-99.99,,,-99.99,,2013-03-07 09:04:00,
2013-03-07 01:14:00,44.0,-99.9,-100.00,SSW,211,12.0,21.0,-999,-99.99,,,-99.99,,2013-03-07 09:14:00,
2013-03-07 02:04:00,46.0,-99.9,-100.00,SW,224,12.0,21.0,-999,-99.99,,,-99.99,,2013-03-07 10:04:00,
2013-03-07 02:14:00,46.0,-99.9,-100.00,SW,224,12.0,21.0,-999,-99.99,,,-99.99,,2013-03-07 10:14:00,
2013-03-07 03:04:00,44.0,-99.9,-100.00,SSW,209,10.0,20.0,-999,-99.99,,,-99.99,,2013-03-07 11:04:00,
2013-03-07 03:12:00,44.0,-99.9,-100.00,SSW,209,10.0,20.0,-999,-99.99,,,-99.99,,2013-03-07 11:12:00,
2013-03-07 04:04:00,44.0,-99.9,-100.00,SW,219,12.0,20.0,-999,-99.99,,,-99.99,,2013-03-07 12:04:00,
2013-03-07 04:13:00,44.0,-99.9,-100.00,SW,219,12.0,20.0,-999,-99.99,,,-99.99,,2013-03-07 12:13:00,
2013-03-07 05:03:00,43.0,-99.9,-100.00,SW,226,12.0,20.0,-999,-99.99,,,-99.99,,2013-03-07 13:03:00,
2013-03-07 05:13:00,43.0,-99.9,-100.00,SW,226,12.0,20.0,-999,-99.99,,,-99.99,,2013-03-07 13:13:00,
2013-03-07 06:02:00,42.0,-99.9,-100.00,SW,225,12.0,18.0,-999,-99.99,,,-99.99,,2013-03-07 14:02:00,
2013-03-07 06:13:00,42.0,-99.9,-100.00,SW,225,12.0,18.0,-999,-99.99,,,-99.99,,2013-03-07 14:13:00,
2013-03-07 07:03:00,41.0,-99.9,-100.00,SW,223,9.0,15.0,-999,-99.99,,,-99.99,,2013-03-07 15:03:00,
2013-03-07 07:13:00,41.0,-99.9,-100.00,SW,223,9.0,15.0,-999,-99.99,,,-99.99,,2013-03-07 15:13:00,
2013-03-07 08:03:00,42.0,-99.9,-100.00,SW,232,5.0,9.0,-999,-99.99,,,-99.99,,2013-03-07 16:03:00,
2013-03-07 08:13:00,42.0,-99.9,-100.00,SW,232,5.0,9.0,-999,-99.99,,,-99.99,,2013-03-07 16:13:00,
2013-03-07 09:03:00,46.0,-99.9,-100.00,SW,216,7.0,12.0,-999,-99.99,,,-99.99,,2013-03-07 17:03:00,
2013-03-07 09:13:00,46.0,-99.9,-100.00,SW,216,7.0,12.0,-999,-99.99,,,-99.99,,2013-03-07 17:13:00,
2013-03-07 10:04:00,48.0,-99.9,-100.00,SW,228,12.0,18.0,-999,-99.99,,,-99.99,,2013-03-07 18:04:00,
2013-03-07 10:13:00,48.0,-99.9,-100.00,SW,228,12.0,18.0,-999,-99.99,,,-99.99,,2013-03-07 18:13:00,
2013-03-07 11:04:00,50.0,-99.9,-100.00,SW,221,12.0,18.0,-999,-99.99,,,-99.99,,2013-03-07 19:04:00,
2013-03-07 11:13:00,50.0,-99.9,-100.00,SW,221,12.0,18.0,-999,-99.99,,,-99.99,,2013-03-07 19:13:00,
2013-03-07 11:53:00,52.0,-99.9,-100.00,SW,220,12.0,18.0,-999,-99.99,,,-99.99,,2013-03-07 19:53:00,
2013-03-07 12:02:00,52.0,-99.9,-100.00,SW,220,12.0,18.0,-999,-99.99,,,-99.99,,2013-03-07 20:02:00,
2013-03-07 12:14:00,52.0,-99.9,-100.00,SW,220,12.0,18.0,-999,-99.99,,,-99.99,,2013-03-07 20:14:00,
2013-03-07 13:03:00,54.0,-99.9,-100.00,WSW,242,12.0,20.0,-999,-99.99,,,-99.99,,2013-03-07 21:03:00,
2013-03-07 13:13:00,54.0,-99.9,-100.00,WSW,242,12.0,20.0,-999,-99.99,,,-99.99,,2013-03-07 21:13:00,
2013-03-07 14:02:00,55.0,-99.9,-100.00,WSW,249,6.0,12.0,-999,-99.99,,,-99.99,,2013-03-07 22:02:00,
2013-03-07 14:12:00,55.0,-99.9,-100.00,WSW,249,6.0,12.0,-999,-99.99,,,-99.99,,2013-03-07 22:12:00,
2013-03-07 15:03:00,56.0,-99.9,-100.00,SW,217,9.0,14.0,-999,-99.99,,,-99.99,,2013-03-07 23:03:00,
2013-03-07 15:13:00,56.0,-99.9,-100.00,SW,217,9.0,14.0,-999,-99.99,,,-99.99,,2013-03-07 23:13:00,
2013-03-07 16:05:00,56.0,-99.9,-100.00,WNW,292,5.0,12.0,-999,-99.99,,,-99.99,,2013-03-08 00:05:00,
2013-03-07 16:13:00,56.0,-99.9,-100.00,WNW,292,5.0,12.0,-999,-99.99,,,-99.99,,2013-03-08 00:13:00,
2013-03-07 17:02:00,57.0,-99.9,-100.00,WSW,238,3.0,6.0,-999,-99.99,,,-99.99,,2013-03-08 01:02:00,
2013-03-07 17:12:00,57.0,-99.9,-100.00,WSW,238,3.0,6.0,-999,-99.99,,,-99.99,,2013-03-08 01:12:00,
2013-03-07 18:02:00,56.0,-99.9,-100.00,WNW,298,3.0,5.0,-999,-99.99,,,-99.99,,2013-03-08 02:02:00,
2013-03-07 18:12:00,56.0,-99.9,-100.00,WNW,298,3.0,5.0,-999,-99.99,,,-99.99,,2013-03-08 02:12:00,
2013-03-07 19:02:00,52.0,-99.9,-100.00,NNE,27,2.0,3.0,-999,-99.99,,,-99.99,,2013-03-08 03:02:00,
2013-03-07 19:12:00,52.0,-99.9,-100.00,NNE,27,2.0,3.0,-999,-99.99,,,-99.99,,2013-03-08 03:12:00,
2013-03-07 19:53:00,47.0,-99.9,-100.00,ENE,59,2.0,3.0,-999,-99.99,,,-99.99,,2013-03-08 03:53:00,
2013-03-07 20:02:00,47.0,-99.9,-100.00,ENE,59,2.0,3.0,-999,-99.99,,,-99.99,,2013-03-08 04:02:00,
2013-03-07 20:12:00,47.0,-99.9,-100.00,ENE,59,2.0,3.0,-999,-99.99,,,-99.99,,2013-03-08 04:12:00,
2013-03-07 21:02:00,43.0,-99.9,-100.00,NNW,342,2.0,3.0,-999,-99.99,,,-99.99,,2013-03-08 05:02:00,
2013-03-07 21:12:00,43.0,-99.9,-100.00,NNW,342,2.0,3.0,-999,-99.99,,,-99.99,,2013-03-08 05:12:00,
2013-03-07 22:02:00,37.0,-99.9,-100.00,ENE,73,2.0,3.0,-999,-99.99,,,-99.99,,2013-03-08 06:02:00,
2013-03-07 22:11:00,37.0,-99.9,-100.00,ENE,73,2.0,3.0,-999,-99.99,,,-99.99,,2013-03-08 06:11:00,
2013-03-07 22:52:00,35.0,-99.9,-100.00,NNW,339,3.0,7.0,-999,-99.99,,,-99.99,,2013-03-08 06:52:00,
2013-03-07 23:01:00,35.0,-99.9,-100.00,NNW,339,3.0,7.0,-999,-99.99,,,-99.99,,2013-03-08 07:01:00,
2013-03-07 23:11:00,35.0,-99.9,-100.00,NNW,339,3.0,7.0,-999,-99.99,,,-99.99,,2013-03-08 07:11:00,
2013-03-07 23:52:00,34.0,-99.9,-100.00,NNW,345,3.0,5.0,-999,-99.99,,,-99.99,,2013-03-08 07:52:00,